sensor_id;sensor_type;location;lat;lon;timestamp;temperature;humidity
8565;DHT22;4320;51.498;6.556;2023-05-27T00:01:46;13.20;1.00
8565;DHT22;4320;51.498;6.556;2023-05-27T00:04:11;13.20;1.00
8565;DHT22;4320;51.498;6.556;2023-05-27T00:06:37;13.20;1.00
8565;DHT22;4320;51.498;6.556;2023-05-27T00:09:03;13.10;1.00
8565;DHT22;4320;51.498;6.556;2023-05-27T00:11:28;13.10;1.00
8565;DHT22;4320;51.498;6.556;2023-05-27T00:13:54;13.10;1.00
8565;DHT22;4320;51.498;6.556;2023-05-27T00:16:19;13.10;1.00
8565;DHT22;4320;51.498;6.556;2023-05-27T00:18:47;13.00;1.00
8565;DHT22;4320;51.498;6.556;2023-05-27T00:21:13;13.10;1.00
8565;DHT22;4320;51.498;6.556;2023-05-27T00:23:39;13.10;1.00
8565;DHT22;4320;51.498;6.556;2023-05-27T00:26:05;13.10;1.00
8565;DHT22;4320;51.498;6.556;2023-05-27T00:28:30;13.00;1.00
8565;DHT22;4320;51.498;6.556;2023-05-27T00:30:57;13.00;1.00
8565;DHT22;4320;51.498;6.556;2023-05-27T00:33:23;12.90;1.00
8565;DHT22;4320;51.498;6.556;2023-05-27T00:35:49;13.00;1.00
8565;DHT22;4320;51.498;6.556;2023-05-27T00:38:15;12.90;1.00
8565;DHT22;4320;51.498;6.556;2023-05-27T00:40:41;12.80;1.00
8565;DHT22;4320;51.498;6.556;2023-05-27T00:43:07;12.90;1.00
8565;DHT22;4320;51.498;6.556;2023-05-27T00:45:32;12.80;1.00
8565;DHT22;4320;51.498;6.556;2023-05-27T00:48:02;12.80;1.00
8565;DHT22;4320;51.498;6.556;2023-05-27T00:50:28;12.80;1.00
8565;DHT22;4320;51.498;6.556;2023-05-27T00:52:54;12.80;1.00
8565;DHT22;4320;51.498;6.556;2023-05-27T00:55:26;12.80;1.00
8565;DHT22;4320;51.498;6.556;2023-05-27T00:57:52;12.70;1.00
8565;DHT22;4320;51.498;6.556;2023-05-27T01:00:21;12.70;1.00
8565;DHT22;4320;51.498;6.556;2023-05-27T01:02:48;12.70;1.00
8565;DHT22;4320;51.498;6.556;2023-05-27T01:05:15;12.70;1.00
8565;DHT22;4320;51.498;6.556;2023-05-27T01:10:54;12.60;1.00
8565;DHT22;4320;51.498;6.556;2023-05-27T01:13:43;12.60;1.00
8565;DHT22;4320;51.498;6.556;2023-05-27T01:16:13;12.50;1.00
8565;DHT22;4320;51.498;6.556;2023-05-27T01:18:42;12.50;1.00
8565;DHT22;4320;51.498;6.556;2023-05-27T01:21:14;12.50;1.00
8565;DHT22;4320;51.498;6.556;2023-05-27T01:23:43;12.50;1.00
8565;DHT22;4320;51.498;6.556;2023-05-27T01:26:12;12.40;1.00
8565;DHT22;4320;51.498;6.556;2023-05-27T01:28:37;12.40;1.00
8565;DHT22;4320;51.498;6.556;2023-05-27T01:31:16;12.40;1.00
8565;DHT22;4320;51.498;6.556;2023-05-27T01:33:49;12.50;1.00
8565;DHT22;4320;51.498;6.556;2023-05-27T01:36:22;12.40;1.00
8565;DHT22;4320;51.498;6.556;2023-05-27T01:38:51;12.40;1.00
8565;DHT22;4320;51.498;6.556;2023-05-27T01:41:17;12.30;1.00
8565;DHT22;4320;51.498;6.556;2023-05-27T01:43:44;12.30;1.00
8565;DHT22;4320;51.498;6.556;2023-05-27T01:46:10;12.30;1.00
8565;DHT22;4320;51.498;6.556;2023-05-27T01:48:35;12.20;1.00
8565;DHT22;4320;51.498;6.556;2023-05-27T01:51:01;12.20;1.00
8565;DHT22;4320;51.498;6.556;2023-05-27T01:53:27;12.20;1.00
8565;DHT22;4320;51.498;6.556;2023-05-27T01:55:52;12.20;1.00
8565;DHT22;4320;51.498;6.556;2023-05-27T01:58:18;12.10;1.00
8565;DHT22;4320;51.498;6.556;2023-05-27T02:00:43;12.10;1.00
8565;DHT22;4320;51.498;6.556;2023-05-27T02:03:09;12.10;1.00
8565;DHT22;4320;51.498;6.556;2023-05-27T02:05:35;12.20;1.00
8565;DHT22;4320;51.498;6.556;2023-05-27T02:08:01;12.20;1.00
8565;DHT22;4320;51.498;6.556;2023-05-27T02:10:28;12.10;1.00
8565;DHT22;4320;51.498;6.556;2023-05-27T02:12:53;12.10;1.00
8565;DHT22;4320;51.498;6.556;2023-05-27T02:15:19;12.00;1.00
8565;DHT22;4320;51.498;6.556;2023-05-27T02:17:49;11.90;1.00
8565;DHT22;4320;51.498;6.556;2023-05-27T02:20:23;11.90;1.00
8565;DHT22;4320;51.498;6.556;2023-05-27T02:22:51;11.90;1.00
8565;DHT22;4320;51.498;6.556;2023-05-27T02:25:17;11.80;1.00
8565;DHT22;4320;51.498;6.556;2023-05-27T02:27:43;11.80;1.00
8565;DHT22;4320;51.498;6.556;2023-05-27T02:30:13;11.80;1.00
8565;DHT22;4320;51.498;6.556;2023-05-27T02:32:38;11.80;1.00
8565;DHT22;4320;51.498;6.556;2023-05-27T02:35:04;11.80;1.00
8565;DHT22;4320;51.498;6.556;2023-05-27T02:37:30;11.80;1.00
8565;DHT22;4320;51.498;6.556;2023-05-27T02:39:56;11.70;1.00
8565;DHT22;4320;51.498;6.556;2023-05-27T02:42:21;11.70;1.00
8565;DHT22;4320;51.498;6.556;2023-05-27T02:44:47;11.70;1.00
8565;DHT22;4320;51.498;6.556;2023-05-27T02:47:13;11.60;1.00
8565;DHT22;4320;51.498;6.556;2023-05-27T02:49:38;11.60;1.00
8565;DHT22;4320;51.498;6.556;2023-05-27T02:52:04;11.70;1.00
8565;DHT22;4320;51.498;6.556;2023-05-27T02:54:30;11.60;1.00
8565;DHT22;4320;51.498;6.556;2023-05-27T02:56:55;11.60;1.00
8565;DHT22;4320;51.498;6.556;2023-05-27T02:59:21;11.70;1.00
8565;DHT22;4320;51.498;6.556;2023-05-27T03:01:46;11.70;1.00
8565;DHT22;4320;51.498;6.556;2023-05-27T03:04:12;11.70;1.00
8565;DHT22;4320;51.498;6.556;2023-05-27T03:06:38;11.70;1.00
8565;DHT22;4320;51.498;6.556;2023-05-27T03:09:04;11.60;1.00
8565;DHT22;4320;51.498;6.556;2023-05-27T03:11:29;11.50;1.00
8565;DHT22;4320;51.498;6.556;2023-05-27T03:13:55;11.40;1.00
8565;DHT22;4320;51.498;6.556;2023-05-27T03:16:21;11.40;1.00
8565;DHT22;4320;51.498;6.556;2023-05-27T03:18:48;11.40;1.00
8565;DHT22;4320;51.498;6.556;2023-05-27T03:21:13;11.40;1.00
8565;DHT22;4320;51.498;6.556;2023-05-27T03:23:39;11.40;1.00
8565;DHT22;4320;51.498;6.556;2023-05-27T03:26:05;11.40;1.00
8565;DHT22;4320;51.498;6.556;2023-05-27T03:28:30;11.50;1.00
8565;DHT22;4320;51.498;6.556;2023-05-27T03:30:56;11.50;1.00
8565;DHT22;4320;51.498;6.556;2023-05-27T03:33:23;11.40;1.00
8565;DHT22;4320;51.498;6.556;2023-05-27T03:35:49;11.50;1.00
8565;DHT22;4320;51.498;6.556;2023-05-27T03:38:14;11.40;1.00
8565;DHT22;4320;51.498;6.556;2023-05-27T03:40:40;11.40;1.00
8565;DHT22;4320;51.498;6.556;2023-05-27T03:43:06;11.40;1.00
8565;DHT22;4320;51.498;6.556;2023-05-27T03:45:31;11.40;1.00
8565;DHT22;4320;51.498;6.556;2023-05-27T03:47:57;11.40;1.00
8565;DHT22;4320;51.498;6.556;2023-05-27T03:50:22;11.40;1.00
8565;DHT22;4320;51.498;6.556;2023-05-27T03:52:48;11.40;1.00
8565;DHT22;4320;51.498;6.556;2023-05-27T03:55:14;11.40;1.00
8565;DHT22;4320;51.498;6.556;2023-05-27T03:57:42;11.40;1.00
8565;DHT22;4320;51.498;6.556;2023-05-27T04:00:08;11.30;1.00
8565;DHT22;4320;51.498;6.556;2023-05-27T04:02:37;11.30;1.00
8565;DHT22;4320;51.498;6.556;2023-05-27T04:05:02;11.30;1.00
8565;DHT22;4320;51.498;6.556;2023-05-27T04:07:28;11.30;1.00
8565;DHT22;4320;51.498;6.556;2023-05-27T04:09:54;11.40;1.00
8565;DHT22;4320;51.498;6.556;2023-05-27T04:12:20;11.40;1.00
8565;DHT22;4320;51.498;6.556;2023-05-27T04:14:46;11.40;1.00
8565;DHT22;4320;51.498;6.556;2023-05-27T04:17:11;11.50;1.00
8565;DHT22;4320;51.498;6.556;2023-05-27T04:19:38;11.50;1.00
8565;DHT22;4320;51.498;6.556;2023-05-27T04:22:04;11.50;1.00
8565;DHT22;4320;51.498;6.556;2023-05-27T04:24:30;11.60;1.00
8565;DHT22;4320;51.498;6.556;2023-05-27T04:26:56;11.60;1.00
8565;DHT22;4320;51.498;6.556;2023-05-27T04:29:22;11.60;1.00
8565;DHT22;4320;51.498;6.556;2023-05-27T04:31:50;12.00;1.00
8565;DHT22;4320;51.498;6.556;2023-05-27T04:34:16;12.20;1.00
8565;DHT22;4320;51.498;6.556;2023-05-27T04:36:42;12.30;1.00
8565;DHT22;4320;51.498;6.556;2023-05-27T04:39:09;12.40;1.00
8565;DHT22;4320;51.498;6.556;2023-05-27T04:41:36;12.20;1.00
8565;DHT22;4320;51.498;6.556;2023-05-27T04:44:05;12.30;1.00
8565;DHT22;4320;51.498;6.556;2023-05-27T04:46:30;12.50;1.00
8565;DHT22;4320;51.498;6.556;2023-05-27T04:48:56;12.50;1.00
8565;DHT22;4320;51.498;6.556;2023-05-27T04:51:22;12.40;1.00
8565;DHT22;4320;51.498;6.556;2023-05-27T04:53:48;12.30;1.00
8565;DHT22;4320;51.498;6.556;2023-05-27T04:56:14;12.20;1.00
8565;DHT22;4320;51.498;6.556;2023-05-27T04:58:45;12.30;1.00
8565;DHT22;4320;51.498;6.556;2023-05-27T05:01:14;12.30;1.00
8565;DHT22;4320;51.498;6.556;2023-05-27T05:03:52;12.40;1.00
8565;DHT22;4320;51.498;6.556;2023-05-27T05:06:28;12.70;1.00
8565;DHT22;4320;51.498;6.556;2023-05-27T05:08:53;12.70;1.00
8565;DHT22;4320;51.498;6.556;2023-05-27T05:11:19;12.60;1.00
8565;DHT22;4320;51.498;6.556;2023-05-27T05:13:45;12.80;1.00
8565;DHT22;4320;51.498;6.556;2023-05-27T05:16:11;12.80;1.00
8565;DHT22;4320;51.498;6.556;2023-05-27T05:18:36;12.80;1.00
8565;DHT22;4320;51.498;6.556;2023-05-27T05:21:02;13.00;1.00
8565;DHT22;4320;51.498;6.556;2023-05-27T05:23:28;13.40;1.00
8565;DHT22;4320;51.498;6.556;2023-05-27T05:25:54;13.50;1.00
8565;DHT22;4320;51.498;6.556;2023-05-27T05:28:23;13.60;1.00
8565;DHT22;4320;51.498;6.556;2023-05-27T05:30:49;13.50;1.00
8565;DHT22;4320;51.498;6.556;2023-05-27T05:33:15;13.40;1.00
8565;DHT22;4320;51.498;6.556;2023-05-27T05:35:41;13.30;1.00
8565;DHT22;4320;51.498;6.556;2023-05-27T05:38:06;13.30;1.00
8565;DHT22;4320;51.498;6.556;2023-05-27T05:40:32;13.30;1.00
8565;DHT22;4320;51.498;6.556;2023-05-27T05:43:03;13.30;1.00
8565;DHT22;4320;51.498;6.556;2023-05-27T05:45:29;13.30;1.00
8565;DHT22;4320;51.498;6.556;2023-05-27T05:47:57;13.50;1.00
8565;DHT22;4320;51.498;6.556;2023-05-27T05:50:22;13.60;1.00
8565;DHT22;4320;51.498;6.556;2023-05-27T05:52:48;13.70;1.00
8565;DHT22;4320;51.498;6.556;2023-05-27T05:55:14;13.70;1.00
8565;DHT22;4320;51.498;6.556;2023-05-27T05:57:40;13.80;1.00
8565;DHT22;4320;51.498;6.556;2023-05-27T06:00:06;13.70;1.00
8565;DHT22;4320;51.498;6.556;2023-05-27T06:02:33;13.80;1.00
8565;DHT22;4320;51.498;6.556;2023-05-27T06:04:59;13.80;1.00
8565;DHT22;4320;51.498;6.556;2023-05-27T06:07:24;13.80;1.00
8565;DHT22;4320;51.498;6.556;2023-05-27T06:09:50;13.80;1.00
8565;DHT22;4320;51.498;6.556;2023-05-27T06:12:16;13.80;1.00
8565;DHT22;4320;51.498;6.556;2023-05-27T06:14:41;13.80;1.00
8565;DHT22;4320;51.498;6.556;2023-05-27T06:17:07;13.90;1.00
8565;DHT22;4320;51.498;6.556;2023-05-27T06:19:32;14.10;1.00
8565;DHT22;4320;51.498;6.556;2023-05-27T06:21:58;14.20;1.00
8565;DHT22;4320;51.498;6.556;2023-05-27T06:24:24;14.30;1.00
8565;DHT22;4320;51.498;6.556;2023-05-27T06:26:49;14.40;1.00
8565;DHT22;4320;51.498;6.556;2023-05-27T06:29:15;14.70;1.00
8565;DHT22;4320;51.498;6.556;2023-05-27T06:31:41;14.80;1.00
8565;DHT22;4320;51.498;6.556;2023-05-27T06:34:07;15.00;1.00
8565;DHT22;4320;51.498;6.556;2023-05-27T06:36:33;14.90;1.00
8565;DHT22;4320;51.498;6.556;2023-05-27T06:38:59;14.90;1.00
8565;DHT22;4320;51.498;6.556;2023-05-27T06:41:25;14.90;1.00
8565;DHT22;4320;51.498;6.556;2023-05-27T06:43:51;14.80;1.00
8565;DHT22;4320;51.498;6.556;2023-05-27T06:46:16;14.90;1.00
8565;DHT22;4320;51.498;6.556;2023-05-27T06:48:42;15.00;1.00
8565;DHT22;4320;51.498;6.556;2023-05-27T06:51:08;15.20;1.00
8565;DHT22;4320;51.498;6.556;2023-05-27T06:53:33;15.40;1.00
8565;DHT22;4320;51.498;6.556;2023-05-27T06:55:59;15.40;1.00
8565;DHT22;4320;51.498;6.556;2023-05-27T06:58:25;15.50;1.00
8565;DHT22;4320;51.498;6.556;2023-05-27T07:00:51;15.80;1.00
8565;DHT22;4320;51.498;6.556;2023-05-27T07:03:16;16.00;1.00
8565;DHT22;4320;51.498;6.556;2023-05-27T07:05:42;15.90;1.00
8565;DHT22;4320;51.498;6.556;2023-05-27T07:08:08;15.70;1.00
8565;DHT22;4320;51.498;6.556;2023-05-27T07:10:33;15.70;1.00
8565;DHT22;4320;51.498;6.556;2023-05-27T07:12:59;15.70;1.00
8565;DHT22;4320;51.498;6.556;2023-05-27T07:15:25;15.80;1.00
8565;DHT22;4320;51.498;6.556;2023-05-27T07:17:52;15.90;1.00
8565;DHT22;4320;51.498;6.556;2023-05-27T07:20:18;16.00;1.00
8565;DHT22;4320;51.498;6.556;2023-05-27T07:22:43;16.20;1.00
8565;DHT22;4320;51.498;6.556;2023-05-27T07:25:09;16.40;1.00
8565;DHT22;4320;51.498;6.556;2023-05-27T07:27:35;16.30;1.00
8565;DHT22;4320;51.498;6.556;2023-05-27T07:30:00;16.50;1.00
8565;DHT22;4320;51.498;6.556;2023-05-27T07:32:26;16.50;1.00
8565;DHT22;4320;51.498;6.556;2023-05-27T07:34:52;16.60;1.00
8565;DHT22;4320;51.498;6.556;2023-05-27T07:37:18;16.60;1.00
8565;DHT22;4320;51.498;6.556;2023-05-27T07:39:44;16.70;1.00
8565;DHT22;4320;51.498;6.556;2023-05-27T07:42:09;16.90;1.00
8565;DHT22;4320;51.498;6.556;2023-05-27T07:44:35;17.20;1.00
8565;DHT22;4320;51.498;6.556;2023-05-27T07:47:00;17.40;1.00
8565;DHT22;4320;51.498;6.556;2023-05-27T07:49:26;17.60;1.00
8565;DHT22;4320;51.498;6.556;2023-05-27T07:51:52;17.70;1.00
8565;DHT22;4320;51.498;6.556;2023-05-27T07:54:17;17.90;1.00
8565;DHT22;4320;51.498;6.556;2023-05-27T07:56:43;18.20;1.00
8565;DHT22;4320;51.498;6.556;2023-05-27T07:59:09;18.00;1.00
8565;DHT22;4320;51.498;6.556;2023-05-27T08:01:34;18.00;1.00
8565;DHT22;4320;51.498;6.556;2023-05-27T08:04:00;18.10;1.00
8565;DHT22;4320;51.498;6.556;2023-05-27T08:06:26;18.50;1.00
8565;DHT22;4320;51.498;6.556;2023-05-27T08:08:52;18.80;1.00
8565;DHT22;4320;51.498;6.556;2023-05-27T08:11:17;18.90;1.00
8565;DHT22;4320;51.498;6.556;2023-05-27T08:13:43;18.80;1.00
8565;DHT22;4320;51.498;6.556;2023-05-27T08:16:09;18.80;1.00
8565;DHT22;4320;51.498;6.556;2023-05-27T08:18:36;18.80;1.00
8565;DHT22;4320;51.498;6.556;2023-05-27T08:21:02;19.10;1.00
8565;DHT22;4320;51.498;6.556;2023-05-27T08:23:27;19.10;1.00
8565;DHT22;4320;51.498;6.556;2023-05-27T08:25:53;18.90;1.00
8565;DHT22;4320;51.498;6.556;2023-05-27T08:28:19;18.70;1.00
8565;DHT22;4320;51.498;6.556;2023-05-27T08:30:44;18.60;1.00
8565;DHT22;4320;51.498;6.556;2023-05-27T08:33:10;18.50;1.00
8565;DHT22;4320;51.498;6.556;2023-05-27T08:35:36;18.40;1.00
8565;DHT22;4320;51.498;6.556;2023-05-27T08:38:01;18.40;1.00
8565;DHT22;4320;51.498;6.556;2023-05-27T08:40:27;18.40;1.00
8565;DHT22;4320;51.498;6.556;2023-05-27T08:42:52;18.30;1.00
8565;DHT22;4320;51.498;6.556;2023-05-27T08:45:18;18.30;1.00
8565;DHT22;4320;51.498;6.556;2023-05-27T08:47:43;18.30;1.00
8565;DHT22;4320;51.498;6.556;2023-05-27T08:50:10;18.30;1.00
8565;DHT22;4320;51.498;6.556;2023-05-27T08:52:46;18.30;1.00
8565;DHT22;4320;51.498;6.556;2023-05-27T08:55:15;18.50;1.00
8565;DHT22;4320;51.498;6.556;2023-05-27T08:57:46;18.70;1.00
8565;DHT22;4320;51.498;6.556;2023-05-27T09:00:15;18.90;1.00
8565;DHT22;4320;51.498;6.556;2023-05-27T09:02:41;19.00;1.00
8565;DHT22;4320;51.498;6.556;2023-05-27T09:05:10;18.80;1.00
8565;DHT22;4320;51.498;6.556;2023-05-27T09:07:37;18.70;1.00
8565;DHT22;4320;51.498;6.556;2023-05-27T09:10:05;18.70;1.00
8565;DHT22;4320;51.498;6.556;2023-05-27T09:12:32;18.80;1.00
8565;DHT22;4320;51.498;6.556;2023-05-27T09:14:58;18.80;1.00
8565;DHT22;4320;51.498;6.556;2023-05-27T09:17:24;18.80;1.00
8565;DHT22;4320;51.498;6.556;2023-05-27T09:19:51;18.80;1.00
8565;DHT22;4320;51.498;6.556;2023-05-27T09:22:28;18.90;1.00
8565;DHT22;4320;51.498;6.556;2023-05-27T09:24:55;19.00;1.00
8565;DHT22;4320;51.498;6.556;2023-05-27T09:27:29;19.00;1.00
8565;DHT22;4320;51.498;6.556;2023-05-27T09:29:56;19.20;1.00
8565;DHT22;4320;51.498;6.556;2023-05-27T09:32:30;19.20;1.00
8565;DHT22;4320;51.498;6.556;2023-05-27T09:34:59;19.20;1.00
8565;DHT22;4320;51.498;6.556;2023-05-27T09:37:30;19.10;1.00
8565;DHT22;4320;51.498;6.556;2023-05-27T09:40:10;18.90;1.00
8565;DHT22;4320;51.498;6.556;2023-05-27T09:42:48;18.90;1.00
8565;DHT22;4320;51.498;6.556;2023-05-27T09:45:19;19.10;1.00
8565;DHT22;4320;51.498;6.556;2023-05-27T09:47:51;19.30;1.00
8565;DHT22;4320;51.498;6.556;2023-05-27T09:50:17;19.50;1.00
8565;DHT22;4320;51.498;6.556;2023-05-27T09:52:44;19.50;1.00
8565;DHT22;4320;51.498;6.556;2023-05-27T09:55:12;19.60;1.00
8565;DHT22;4320;51.498;6.556;2023-05-27T09:57:39;19.60;1.00
8565;DHT22;4320;51.498;6.556;2023-05-27T10:00:07;19.70;1.00
8565;DHT22;4320;51.498;6.556;2023-05-27T10:02:45;19.80;1.00
8565;DHT22;4320;51.498;6.556;2023-05-27T10:05:13;20.00;1.00
8565;DHT22;4320;51.498;6.556;2023-05-27T10:07:43;20.20;1.00
8565;DHT22;4320;51.498;6.556;2023-05-27T10:10:12;20.30;1.00
8565;DHT22;4320;51.498;6.556;2023-05-27T10:12:43;20.30;1.00
8565;DHT22;4320;51.498;6.556;2023-05-27T10:15:12;20.40;1.00
8565;DHT22;4320;51.498;6.556;2023-05-27T10:17:57;20.50;1.00
8565;DHT22;4320;51.498;6.556;2023-05-27T10:20:34;20.80;1.00
8565;DHT22;4320;51.498;6.556;2023-05-27T10:26:05;21.30;1.00
8565;DHT22;4320;51.498;6.556;2023-05-27T10:28:36;21.50;1.00
8565;DHT22;4320;51.498;6.556;2023-05-27T10:31:15;21.50;1.00
8565;DHT22;4320;51.498;6.556;2023-05-27T10:33:49;21.60;1.00
8565;DHT22;4320;51.498;6.556;2023-05-27T10:36:26;21.70;1.00
8565;DHT22;4320;51.498;6.556;2023-05-27T10:38:55;21.70;1.00
8565;DHT22;4320;51.498;6.556;2023-05-27T10:41:22;21.70;1.00
8565;DHT22;4320;51.498;6.556;2023-05-27T10:43:58;21.60;1.00
8565;DHT22;4320;51.498;6.556;2023-05-27T10:46:24;21.50;1.00
8565;DHT22;4320;51.498;6.556;2023-05-27T10:48:50;21.50;1.00
8565;DHT22;4320;51.498;6.556;2023-05-27T10:51:15;21.50;1.00
8565;DHT22;4320;51.498;6.556;2023-05-27T10:53:41;21.40;1.00
8565;DHT22;4320;51.498;6.556;2023-05-27T10:56:07;21.40;1.00
8565;DHT22;4320;51.498;6.556;2023-05-27T10:58:37;21.40;1.00
8565;DHT22;4320;51.498;6.556;2023-05-27T11:01:14;21.20;1.00
8565;DHT22;4320;51.498;6.556;2023-05-27T11:03:44;21.20;1.00
8565;DHT22;4320;51.498;6.556;2023-05-27T11:06:15;21.30;1.00
8565;DHT22;4320;51.498;6.556;2023-05-27T11:08:42;21.40;1.00
8565;DHT22;4320;51.498;6.556;2023-05-27T11:11:09;21.50;1.00
8565;DHT22;4320;51.498;6.556;2023-05-27T11:13:41;21.60;1.00
8565;DHT22;4320;51.498;6.556;2023-05-27T11:16:08;21.80;1.00
8565;DHT22;4320;51.498;6.556;2023-05-27T11:18:47;21.90;1.00
8565;DHT22;4320;51.498;6.556;2023-05-27T11:21:14;22.30;1.00
8565;DHT22;4320;51.498;6.556;2023-05-27T11:23:48;22.80;1.00
8565;DHT22;4320;51.498;6.556;2023-05-27T11:26:23;23.30;1.00
8565;DHT22;4320;51.498;6.556;2023-05-27T11:28:57;23.60;1.00
8565;DHT22;4320;51.498;6.556;2023-05-27T11:31:30;23.70;1.00
8565;DHT22;4320;51.498;6.556;2023-05-27T11:33:56;23.80;1.00
8565;DHT22;4320;51.498;6.556;2023-05-27T11:36:26;23.90;1.00
8565;DHT22;4320;51.498;6.556;2023-05-27T11:39:01;24.10;1.00
8565;DHT22;4320;51.498;6.556;2023-05-27T11:41:29;24.30;1.00
8565;DHT22;4320;51.498;6.556;2023-05-27T11:44:00;24.60;1.00
8565;DHT22;4320;51.498;6.556;2023-05-27T11:46:45;24.70;1.00
8565;DHT22;4320;51.498;6.556;2023-05-27T11:49:16;25.00;1.00
8565;DHT22;4320;51.498;6.556;2023-05-27T11:51:53;25.40;1.00
8565;DHT22;4320;51.498;6.556;2023-05-27T11:56:49;26.20;1.00
8565;DHT22;4320;51.498;6.556;2023-05-27T11:59:15;26.30;1.00
8565;DHT22;4320;51.498;6.556;2023-05-27T12:01:41;26.30;1.00
8565;DHT22;4320;51.498;6.556;2023-05-27T12:04:08;26.40;1.00
8565;DHT22;4320;51.498;6.556;2023-05-27T12:06:33;26.30;1.00
8565;DHT22;4320;51.498;6.556;2023-05-27T12:08:59;26.10;1.00
8565;DHT22;4320;51.498;6.556;2023-05-27T12:11:25;26.40;1.00
8565;DHT22;4320;51.498;6.556;2023-05-27T12:13:53;26.50;1.00
8565;DHT22;4320;51.498;6.556;2023-05-27T12:16:19;26.60;1.00
8565;DHT22;4320;51.498;6.556;2023-05-27T12:18:44;26.40;1.00
8565;DHT22;4320;51.498;6.556;2023-05-27T12:21:11;26.40;1.00
8565;DHT22;4320;51.498;6.556;2023-05-27T12:23:36;26.40;1.00
8565;DHT22;4320;51.498;6.556;2023-05-27T12:26:02;26.70;1.00
8565;DHT22;4320;51.498;6.556;2023-05-27T12:28:28;27.10;1.00
8565;DHT22;4320;51.498;6.556;2023-05-27T12:30:53;26.90;1.00
8565;DHT22;4320;51.498;6.556;2023-05-27T12:33:19;26.80;1.00
8565;DHT22;4320;51.498;6.556;2023-05-27T12:35:44;26.60;1.00
8565;DHT22;4320;51.498;6.556;2023-05-27T12:38:10;26.70;1.00
8565;DHT22;4320;51.498;6.556;2023-05-27T12:40:36;26.60;1.00
8565;DHT22;4320;51.498;6.556;2023-05-27T12:43:02;26.70;1.00
8565;DHT22;4320;51.498;6.556;2023-05-27T12:45:29;26.70;1.00
8565;DHT22;4320;51.498;6.556;2023-05-27T12:47:55;26.70;1.00
8565;DHT22;4320;51.498;6.556;2023-05-27T12:50:21;26.80;1.00
8565;DHT22;4320;51.498;6.556;2023-05-27T12:52:48;26.80;1.00
8565;DHT22;4320;51.498;6.556;2023-05-27T12:55:16;26.50;1.00
8565;DHT22;4320;51.498;6.556;2023-05-27T12:57:47;26.30;1.00
8565;DHT22;4320;51.498;6.556;2023-05-27T13:00:14;26.10;1.00
8565;DHT22;4320;51.498;6.556;2023-05-27T13:02:40;26.00;1.00
8565;DHT22;4320;51.498;6.556;2023-05-27T13:05:06;25.80;1.00
8565;DHT22;4320;51.498;6.556;2023-05-27T13:07:33;25.80;1.00
8565;DHT22;4320;51.498;6.556;2023-05-27T13:10:03;25.80;1.00
8565;DHT22;4320;51.498;6.556;2023-05-27T13:12:30;25.80;1.00
8565;DHT22;4320;51.498;6.556;2023-05-27T13:14:57;25.60;1.00
8565;DHT22;4320;51.498;6.556;2023-05-27T13:17:23;25.50;1.00
8565;DHT22;4320;51.498;6.556;2023-05-27T13:19:49;25.40;1.00
8565;DHT22;4320;51.498;6.556;2023-05-27T13:22:14;25.60;1.00
8565;DHT22;4320;51.498;6.556;2023-05-27T13:24:40;25.40;1.00
8565;DHT22;4320;51.498;6.556;2023-05-27T13:27:07;25.50;1.00
8565;DHT22;4320;51.498;6.556;2023-05-27T13:29:34;25.50;1.00
8565;DHT22;4320;51.498;6.556;2023-05-27T13:31:59;25.40;1.00
8565;DHT22;4320;51.498;6.556;2023-05-27T13:34:25;25.20;1.00
8565;DHT22;4320;51.498;6.556;2023-05-27T13:36:52;25.00;1.00
8565;DHT22;4320;51.498;6.556;2023-05-27T13:39:18;24.90;1.00
8565;DHT22;4320;51.498;6.556;2023-05-27T13:41:44;24.80;1.00
8565;DHT22;4320;51.498;6.556;2023-05-27T13:44:09;24.60;1.00
8565;DHT22;4320;51.498;6.556;2023-05-27T13:46:35;24.70;1.00
8565;DHT22;4320;51.498;6.556;2023-05-27T13:49:01;24.70;1.00
8565;DHT22;4320;51.498;6.556;2023-05-27T13:51:28;24.60;1.00
8565;DHT22;4320;51.498;6.556;2023-05-27T13:53:54;24.40;1.00
8565;DHT22;4320;51.498;6.556;2023-05-27T13:56:19;24.50;1.00
8565;DHT22;4320;51.498;6.556;2023-05-27T13:58:47;24.50;1.00
8565;DHT22;4320;51.498;6.556;2023-05-27T14:01:12;24.50;1.00
8565;DHT22;4320;51.498;6.556;2023-05-27T14:03:38;24.50;1.00
8565;DHT22;4320;51.498;6.556;2023-05-27T14:06:03;24.50;1.00
8565;DHT22;4320;51.498;6.556;2023-05-27T14:08:29;24.40;1.00
8565;DHT22;4320;51.498;6.556;2023-05-27T14:10:54;24.20;1.00
8565;DHT22;4320;51.498;6.556;2023-05-27T14:13:20;24.20;1.00
8565;DHT22;4320;51.498;6.556;2023-05-27T14:15:46;24.20;1.00
8565;DHT22;4320;51.498;6.556;2023-05-27T14:18:11;24.20;1.00
8565;DHT22;4320;51.498;6.556;2023-05-27T14:20:37;24.20;1.00
8565;DHT22;4320;51.498;6.556;2023-05-27T14:23:03;24.20;1.00
8565;DHT22;4320;51.498;6.556;2023-05-27T14:25:30;24.20;1.00
8565;DHT22;4320;51.498;6.556;2023-05-27T14:27:55;24.20;1.00
8565;DHT22;4320;51.498;6.556;2023-05-27T14:30:22;24.10;1.00
8565;DHT22;4320;51.498;6.556;2023-05-27T14:32:50;23.90;1.00
8565;DHT22;4320;51.498;6.556;2023-05-27T14:35:15;24.00;1.00
8565;DHT22;4320;51.498;6.556;2023-05-27T14:37:41;23.90;1.00
8565;DHT22;4320;51.498;6.556;2023-05-27T14:40:07;23.90;1.00
8565;DHT22;4320;51.498;6.556;2023-05-27T14:42:32;24.00;1.00
8565;DHT22;4320;51.498;6.556;2023-05-27T14:44:58;24.10;1.00
8565;DHT22;4320;51.498;6.556;2023-05-27T14:47:24;23.90;1.00
8565;DHT22;4320;51.498;6.556;2023-05-27T14:49:49;24.00;1.00
8565;DHT22;4320;51.498;6.556;2023-05-27T14:52:15;23.90;1.00
8565;DHT22;4320;51.498;6.556;2023-05-27T14:54:40;24.00;1.00
8565;DHT22;4320;51.498;6.556;2023-05-27T14:57:06;23.90;1.00
8565;DHT22;4320;51.498;6.556;2023-05-27T14:59:32;23.80;1.00
8565;DHT22;4320;51.498;6.556;2023-05-27T15:01:57;23.80;1.00
8565;DHT22;4320;51.498;6.556;2023-05-27T15:04:23;23.80;1.00
8565;DHT22;4320;51.498;6.556;2023-05-27T15:06:48;23.80;1.00
8565;DHT22;4320;51.498;6.556;2023-05-27T15:09:14;23.70;1.00
8565;DHT22;4320;51.498;6.556;2023-05-27T15:11:40;23.70;1.00
8565;DHT22;4320;51.498;6.556;2023-05-27T15:14:05;23.70;1.00
8565;DHT22;4320;51.498;6.556;2023-05-27T15:16:31;23.70;1.00
8565;DHT22;4320;51.498;6.556;2023-05-27T15:18:57;23.70;1.00
8565;DHT22;4320;51.498;6.556;2023-05-27T15:21:25;23.70;1.00
8565;DHT22;4320;51.498;6.556;2023-05-27T15:23:51;23.60;1.00
8565;DHT22;4320;51.498;6.556;2023-05-27T15:26:16;23.60;1.00
8565;DHT22;4320;51.498;6.556;2023-05-27T15:28:43;23.50;1.00
8565;DHT22;4320;51.498;6.556;2023-05-27T15:31:09;23.50;1.00
8565;DHT22;4320;51.498;6.556;2023-05-27T15:33:34;23.60;1.00
8565;DHT22;4320;51.498;6.556;2023-05-27T15:36:00;23.60;1.00
8565;DHT22;4320;51.498;6.556;2023-05-27T15:38:26;23.60;1.00
8565;DHT22;4320;51.498;6.556;2023-05-27T15:40:52;23.60;1.00
8565;DHT22;4320;51.498;6.556;2023-05-27T15:43:17;23.60;1.00
8565;DHT22;4320;51.498;6.556;2023-05-27T15:45:44;23.60;1.00
8565;DHT22;4320;51.498;6.556;2023-05-27T15:48:10;23.70;1.00
8565;DHT22;4320;51.498;6.556;2023-05-27T15:50:36;23.60;1.00
8565;DHT22;4320;51.498;6.556;2023-05-27T15:53:05;23.60;1.00
8565;DHT22;4320;51.498;6.556;2023-05-27T15:55:31;23.40;1.00
8565;DHT22;4320;51.498;6.556;2023-05-27T15:57:56;23.20;1.00
8565;DHT22;4320;51.498;6.556;2023-05-27T16:00:22;23.10;1.00
8565;DHT22;4320;51.498;6.556;2023-05-27T16:02:48;23.10;1.00
8565;DHT22;4320;51.498;6.556;2023-05-27T16:05:13;23.10;1.00
8565;DHT22;4320;51.498;6.556;2023-05-27T16:07:40;23.20;1.00
8565;DHT22;4320;51.498;6.556;2023-05-27T16:10:07;23.20;1.00
8565;DHT22;4320;51.498;6.556;2023-05-27T16:12:33;23.20;1.00
8565;DHT22;4320;51.498;6.556;2023-05-27T16:14:58;23.20;1.00
8565;DHT22;4320;51.498;6.556;2023-05-27T16:17:24;23.30;1.00
8565;DHT22;4320;51.498;6.556;2023-05-27T16:19:54;23.30;1.00
8565;DHT22;4320;51.498;6.556;2023-05-27T16:22:21;23.20;1.00
8565;DHT22;4320;51.498;6.556;2023-05-27T16:24:47;23.20;1.00